createdAt,value
2023-04-03T00:01:04.114Z,3.03
2023-04-03T00:12:07.082Z,3.03
2023-04-03T00:23:03.371Z,3.02
2023-04-03T00:34:03.293Z,3.01
2023-04-03T00:45:07.197Z,3.00
2023-04-03T00:56:08.933Z,3.00
2023-04-03T01:07:04.777Z,2.99
2023-04-03T01:18:06.994Z,2.99
2023-04-03T01:29:10.366Z,3.00
2023-04-03T01:40:11.332Z,2.99
2023-04-03T01:51:07.068Z,2.99
2023-04-03T02:02:10.360Z,2.99
2023-04-03T02:13:10.320Z,2.99
2023-04-03T02:24:08.367Z,2.99
2023-04-03T02:35:13.532Z,2.99
2023-04-03T02:46:12.079Z,2.98
2023-04-03T02:56:52.968Z,2.97
2023-04-03T03:07:48.571Z,2.97
2023-04-03T03:18:34.977Z,2.96
2023-04-03T03:29:37.139Z,2.96
2023-04-03T03:40:46.027Z,2.96
2023-04-03T03:51:51.358Z,2.96
2023-04-03T04:03:00.191Z,2.96
2023-04-03T04:14:05.861Z,2.96
2023-04-03T04:25:12.609Z,2.96
2023-04-03T04:36:12.997Z,2.95
2023-04-03T04:47:03.419Z,2.94
2023-04-03T04:57:48.945Z,2.94
2023-04-03T05:08:55.004Z,2.96
2023-04-03T05:19:52.945Z,2.97
2023-04-03T05:30:50.204Z,3.00
2023-04-03T05:41:53.449Z,3.02
2023-04-03T05:52:51.228Z,3.04
2023-04-03T06:03:50.006Z,3.06
2023-04-03T06:14:52.656Z,3.09
2023-04-03T06:25:53.893Z,3.13
2023-04-03T06:36:55.555Z,3.15
2023-04-03T06:47:53.971Z,3.14
2023-04-03T06:58:40.061Z,3.11
2023-04-03T07:09:34.570Z,3.10
2023-04-03T07:20:29.224Z,3.11
2023-04-03T07:31:21.130Z,3.10
2023-04-03T07:42:18.636Z,3.12
2023-04-03T07:53:08.220Z,3.15
2023-04-03T08:04:09.433Z,3.19
2023-04-03T08:15:09.691Z,3.23
2023-04-03T08:26:07.381Z,3.31
2023-04-03T08:37:02.594Z,3.28
2023-04-03T08:48:03.488Z,3.25
2023-04-03T08:59:02.917Z,3.27
2023-04-03T09:10:01.539Z,3.32
2023-04-03T09:20:59.575Z,3.26
2023-04-03T09:31:55.789Z,3.29
2023-04-03T09:43:01.512Z,3.30
2023-04-03T09:53:49.924Z,3.29
2023-04-03T10:04:48.880Z,3.30
2023-04-03T10:15:45.634Z,3.30
2023-04-03T10:26:45.535Z,3.29
2023-04-03T10:37:40.297Z,3.29
2023-04-03T10:48:35.267Z,3.30
2023-04-03T10:59:34.764Z,3.30
2023-04-03T11:10:14.678Z,3.29
2023-04-03T11:21:14.812Z,3.30
2023-04-03T11:32:12.856Z,3.33
2023-04-03T11:43:07.425Z,3.32
2023-04-03T11:53:57.889Z,3.39
2023-04-03T12:05:01.177Z,3.40
2023-04-03T12:16:00.201Z,3.43
2023-04-03T12:26:54.000Z,3.33
2023-04-03T12:37:50.082Z,3.44
2023-04-03T12:48:51.940Z,3.40
2023-04-03T12:59:49.829Z,3.35
2023-04-03T13:10:51.283Z,3.44
2023-04-03T13:21:40.789Z,3.44
2023-04-03T13:32:43.019Z,3.44
2023-04-03T13:43:37.353Z,3.44
2023-04-03T13:54:36.858Z,3.44
2023-04-03T14:05:35.183Z,3.43
2023-04-03T14:16:33.501Z,3.42
2023-04-03T14:27:34.047Z,3.42
2023-04-03T14:38:36.008Z,3.42
2023-04-03T14:49:36.523Z,3.41
2023-04-03T15:00:37.565Z,3.40
2023-04-03T15:11:33.946Z,3.40
2023-04-03T15:22:30.220Z,3.39
2023-04-03T15:33:22.789Z,3.39
2023-04-03T15:44:20.680Z,3.39
2023-04-03T15:55:17.638Z,3.39
2023-04-03T16:06:06.159Z,3.33
2023-04-03T16:16:55.752Z,3.35
2023-04-03T16:27:51.143Z,3.33
2023-04-03T16:38:48.881Z,3.32
2023-04-03T16:49:36.424Z,3.30
2023-04-03T17:00:20.161Z,3.28
2023-04-03T17:11:13.655Z,3.26
2023-04-03T17:22:04.909Z,3.23
2023-04-03T17:33:01.623Z,3.22
2023-04-03T17:43:59.816Z,3.21
2023-04-03T17:55:00.065Z,3.20
2023-04-03T18:06:00.254Z,3.18
2023-04-03T18:16:55.878Z,3.18
2023-04-03T18:27:43.826Z,3.17
2023-04-03T18:38:43.673Z,3.16
2023-04-03T18:49:41.212Z,3.15
2023-04-03T19:00:38.016Z,3.14
2023-04-03T19:11:32.602Z,3.14
2023-04-03T19:22:33.007Z,3.13
2023-04-03T19:33:29.885Z,3.12
2023-04-03T19:44:29.345Z,3.11
2023-04-03T19:55:29.821Z,3.10
2023-04-03T20:06:25.815Z,3.10
2023-04-03T20:17:24.194Z,3.09
2023-04-03T20:28:21.096Z,3.08
2023-04-03T20:39:18.871Z,3.07
2023-04-03T20:50:14.968Z,3.06
2023-04-03T21:01:05.384Z,3.06
2023-04-03T21:11:51.318Z,3.05
2023-04-03T21:22:50.852Z,3.05
2023-04-03T21:33:42.206Z,3.04
2023-04-03T21:44:39.103Z,3.04
2023-04-03T21:55:38.580Z,3.04
2023-04-03T22:06:39.981Z,3.03
2023-04-03T22:17:39.560Z,3.03
2023-04-03T22:28:28.398Z,3.02
2023-04-03T22:39:22.141Z,3.01
2023-04-03T22:50:23.537Z,3.00
2023-04-03T23:01:18.899Z,3.00
2023-04-03T23:12:20.279Z,2.99
2023-04-03T23:23:18.484Z,2.99
2023-04-03T23:34:17.181Z,2.98
2023-04-03T23:45:01.119Z,2.96
2023-04-03T23:56:05.031Z,2.96
